sensor_id;sensor_type;location;lat;lon;timestamp;P1;durP1;ratioP1;P2;durP2;ratioP2
8411;SDS011;4243;49.296;11.348;2023-06-04T00:01:32;121.07;;;3.10;;
8411;SDS011;4243;49.296;11.348;2023-06-04T00:03:59;121.67;;;3.00;;
8411;SDS011;4243;49.296;11.348;2023-06-04T00:06:26;121.73;;;2.97;;
8411;SDS011;4243;49.296;11.348;2023-06-04T00:08:54;122.00;;;3.07;;
8411;SDS011;4243;49.296;11.348;2023-06-04T00:11:22;122.17;;;3.33;;
8411;SDS011;4243;49.296;11.348;2023-06-04T00:13:49;122.13;;;3.20;;
8411;SDS011;4243;49.296;11.348;2023-06-04T00:16:17;121.70;;;3.10;;
8411;SDS011;4243;49.296;11.348;2023-06-04T00:18:45;121.97;;;3.40;;
8411;SDS011;4243;49.296;11.348;2023-06-04T00:21:12;122.37;;;3.07;;
8411;SDS011;4243;49.296;11.348;2023-06-04T00:23:40;122.07;;;3.30;;
8411;SDS011;4243;49.296;11.348;2023-06-04T00:26:08;122.23;;;3.13;;
8411;SDS011;4243;49.296;11.348;2023-06-04T00:28:35;121.93;;;3.33;;
8411;SDS011;4243;49.296;11.348;2023-06-04T00:31:04;121.90;;;3.23;;
8411;SDS011;4243;49.296;11.348;2023-06-04T00:33:32;122.30;;;3.53;;
8411;SDS011;4243;49.296;11.348;2023-06-04T00:36:01;122.00;;;3.43;;
8411;SDS011;4243;49.296;11.348;2023-06-04T00:38:29;122.87;;;3.70;;
8411;SDS011;4243;49.296;11.348;2023-06-04T00:40:56;122.47;;;3.70;;
8411;SDS011;4243;49.296;11.348;2023-06-04T00:43:24;121.87;;;3.63;;
8411;SDS011;4243;49.296;11.348;2023-06-04T00:45:54;122.40;;;3.57;;
8411;SDS011;4243;49.296;11.348;2023-06-04T00:48:21;122.40;;;3.60;;
8411;SDS011;4243;49.296;11.348;2023-06-04T00:50:49;122.67;;;3.90;;
8411;SDS011;4243;49.296;11.348;2023-06-04T00:53:17;121.67;;;3.57;;
8411;SDS011;4243;49.296;11.348;2023-06-04T00:55:46;122.40;;;3.70;;
8411;SDS011;4243;49.296;11.348;2023-06-04T00:58:14;122.57;;;3.60;;
8411;SDS011;4243;49.296;11.348;2023-06-04T01:00:45;122.47;;;3.83;;
8411;SDS011;4243;49.296;11.348;2023-06-04T01:03:17;121.77;;;3.23;;
8411;SDS011;4243;49.296;11.348;2023-06-04T01:05:50;122.10;;;3.30;;
8411;SDS011;4243;49.296;11.348;2023-06-04T01:08:30;122.30;;;3.30;;
8411;SDS011;4243;49.296;11.348;2023-06-04T01:10:58;122.40;;;3.33;;
8411;SDS011;4243;49.296;11.348;2023-06-04T01:13:26;122.50;;;3.13;;
8411;SDS011;4243;49.296;11.348;2023-06-04T01:15:54;122.27;;;3.33;;
8411;SDS011;4243;49.296;11.348;2023-06-04T01:18:23;122.33;;;3.13;;
8411;SDS011;4243;49.296;11.348;2023-06-04T01:23:37;122.10;;;3.13;;
8411;SDS011;4243;49.296;11.348;2023-06-04T01:26:29;121.67;;;3.13;;
8411;SDS011;4243;49.296;11.348;2023-06-04T01:28:58;121.97;;;3.30;;
8411;SDS011;4243;49.296;11.348;2023-06-04T01:31:28;121.47;;;3.10;;
8411;SDS011;4243;49.296;11.348;2023-06-04T01:33:59;122.57;;;3.40;;
8411;SDS011;4243;49.296;11.348;2023-06-04T01:36:26;122.30;;;3.20;;
8411;SDS011;4243;49.296;11.348;2023-06-04T01:38:54;122.17;;;3.27;;
8411;SDS011;4243;49.296;11.348;2023-06-04T01:41:21;122.20;;;3.13;;
8411;SDS011;4243;49.296;11.348;2023-06-04T01:43:48;121.97;;;3.23;;
8411;SDS011;4243;49.296;11.348;2023-06-04T01:46:16;122.27;;;3.20;;
8411;SDS011;4243;49.296;11.348;2023-06-04T01:48:43;122.03;;;3.00;;
8411;SDS011;4243;49.296;11.348;2023-06-04T01:51:10;122.30;;;3.30;;
8411;SDS011;4243;49.296;11.348;2023-06-04T01:53:38;121.83;;;3.00;;
8411;SDS011;4243;49.296;11.348;2023-06-04T01:56:06;122.30;;;3.07;;
8411;SDS011;4243;49.296;11.348;2023-06-04T01:58:41;122.10;;;2.90;;
8411;SDS011;4243;49.296;11.348;2023-06-04T02:01:09;121.90;;;3.10;;
8411;SDS011;4243;49.296;11.348;2023-06-04T02:03:36;121.87;;;2.97;;
8411;SDS011;4243;49.296;11.348;2023-06-04T02:06:04;122.57;;;2.87;;
8411;SDS011;4243;49.296;11.348;2023-06-04T02:08:35;122.10;;;2.97;;
8411;SDS011;4243;49.296;11.348;2023-06-04T02:11:02;122.50;;;3.10;;
8411;SDS011;4243;49.296;11.348;2023-06-04T02:13:30;121.67;;;3.10;;
8411;SDS011;4243;49.296;11.348;2023-06-04T02:15:57;122.40;;;2.90;;
8411;SDS011;4243;49.296;11.348;2023-06-04T02:18:25;122.13;;;2.93;;
8411;SDS011;4243;49.296;11.348;2023-06-04T02:20:52;122.40;;;2.90;;
8411;SDS011;4243;49.296;11.348;2023-06-04T02:23:19;121.97;;;2.80;;
8411;SDS011;4243;49.296;11.348;2023-06-04T02:25:47;122.10;;;2.90;;
8411;SDS011;4243;49.296;11.348;2023-06-04T02:28:16;121.83;;;2.90;;
8411;SDS011;4243;49.296;11.348;2023-06-04T02:30:44;122.70;;;2.93;;
8411;SDS011;4243;49.296;11.348;2023-06-04T02:33:15;122.17;;;2.90;;
8411;SDS011;4243;49.296;11.348;2023-06-04T02:35:42;122.17;;;3.03;;
8411;SDS011;4243;49.296;11.348;2023-06-04T02:38:11;122.10;;;2.83;;
8411;SDS011;4243;49.296;11.348;2023-06-04T02:40:39;121.97;;;3.00;;
8411;SDS011;4243;49.296;11.348;2023-06-04T02:43:06;122.20;;;2.90;;
8411;SDS011;4243;49.296;11.348;2023-06-04T02:45:34;121.23;;;3.00;;
8411;SDS011;4243;49.296;11.348;2023-06-04T02:48:01;122.70;;;3.03;;
8411;SDS011;4243;49.296;11.348;2023-06-04T02:50:29;121.77;;;3.10;;
8411;SDS011;4243;49.296;11.348;2023-06-04T02:52:56;122.30;;;2.97;;
8411;SDS011;4243;49.296;11.348;2023-06-04T02:55:24;121.77;;;2.90;;
8411;SDS011;4243;49.296;11.348;2023-06-04T02:57:52;122.47;;;2.90;;
8411;SDS011;4243;49.296;11.348;2023-06-04T03:00:19;123.27;;;3.10;;
8411;SDS011;4243;49.296;11.348;2023-06-04T03:02:47;122.70;;;3.10;;
8411;SDS011;4243;49.296;11.348;2023-06-04T03:05:15;122.63;;;3.07;;
8411;SDS011;4243;49.296;11.348;2023-06-04T03:07:45;122.27;;;3.13;;
8411;SDS011;4243;49.296;11.348;2023-06-04T03:10:14;122.50;;;3.30;;
8411;SDS011;4243;49.296;11.348;2023-06-04T03:12:42;121.60;;;3.00;;
8411;SDS011;4243;49.296;11.348;2023-06-04T03:15:10;122.67;;;3.00;;
8411;SDS011;4243;49.296;11.348;2023-06-04T03:17:38;122.07;;;3.10;;
8411;SDS011;4243;49.296;11.348;2023-06-04T03:20:07;122.50;;;3.13;;
8411;SDS011;4243;49.296;11.348;2023-06-04T03:22:35;121.97;;;3.00;;
8411;SDS011;4243;49.296;11.348;2023-06-04T03:25:03;122.73;;;3.10;;
8411;SDS011;4243;49.296;11.348;2023-06-04T03:27:32;122.70;;;3.20;;
8411;SDS011;4243;49.296;11.348;2023-06-04T03:30:01;122.67;;;3.10;;
8411;SDS011;4243;49.296;11.348;2023-06-04T03:32:38;123.27;;;3.07;;
8411;SDS011;4243;49.296;11.348;2023-06-04T03:35:06;121.67;;;3.00;;
8411;SDS011;4243;49.296;11.348;2023-06-04T03:37:34;122.70;;;3.10;;
8411;SDS011;4243;49.296;11.348;2023-06-04T03:40:02;123.07;;;3.23;;
8411;SDS011;4243;49.296;11.348;2023-06-04T03:42:34;122.60;;;3.30;;
8411;SDS011;4243;49.296;11.348;2023-06-04T03:45:02;123.00;;;3.00;;
8411;SDS011;4243;49.296;11.348;2023-06-04T03:47:32;122.70;;;3.20;;
8411;SDS011;4243;49.296;11.348;2023-06-04T03:50:01;121.80;;;3.07;;
8411;SDS011;4243;49.296;11.348;2023-06-04T03:52:29;122.27;;;3.13;;
8411;SDS011;4243;49.296;11.348;2023-06-04T03:54:58;123.10;;;3.30;;
8411;SDS011;4243;49.296;11.348;2023-06-04T03:57:27;122.97;;;3.20;;
8411;SDS011;4243;49.296;11.348;2023-06-04T03:59:54;122.37;;;3.03;;
8411;SDS011;4243;49.296;11.348;2023-06-04T04:02:22;121.93;;;3.20;;
8411;SDS011;4243;49.296;11.348;2023-06-04T04:04:50;122.73;;;3.00;;
8411;SDS011;4243;49.296;11.348;2023-06-04T04:07:21;122.40;;;3.07;;
8411;SDS011;4243;49.296;11.348;2023-06-04T04:09:50;122.10;;;3.10;;
8411;SDS011;4243;49.296;11.348;2023-06-04T04:12:19;122.37;;;2.97;;
8411;SDS011;4243;49.296;11.348;2023-06-04T04:14:48;121.93;;;3.00;;
8411;SDS011;4243;49.296;11.348;2023-06-04T04:17:15;122.47;;;3.00;;
8411;SDS011;4243;49.296;11.348;2023-06-04T04:19:44;122.27;;;3.20;;
8411;SDS011;4243;49.296;11.348;2023-06-04T04:22:11;122.50;;;3.00;;
8411;SDS011;4243;49.296;11.348;2023-06-04T04:24:39;121.87;;;3.17;;
8411;SDS011;4243;49.296;11.348;2023-06-04T04:27:07;122.00;;;2.97;;
8411;SDS011;4243;49.296;11.348;2023-06-04T04:29:37;122.00;;;3.00;;
8411;SDS011;4243;49.296;11.348;2023-06-04T04:32:05;121.80;;;3.00;;
8411;SDS011;4243;49.296;11.348;2023-06-04T04:34:49;122.07;;;2.97;;
8411;SDS011;4243;49.296;11.348;2023-06-04T04:37:22;121.90;;;3.00;;
8411;SDS011;4243;49.296;11.348;2023-06-04T04:39:53;121.80;;;3.00;;
8411;SDS011;4243;49.296;11.348;2023-06-04T04:42:22;121.57;;;3.10;;
8411;SDS011;4243;49.296;11.348;2023-06-04T04:44:50;121.40;;;2.90;;
8411;SDS011;4243;49.296;11.348;2023-06-04T04:47:20;121.47;;;3.00;;
8411;SDS011;4243;49.296;11.348;2023-06-04T04:49:48;121.73;;;2.97;;
8411;SDS011;4243;49.296;11.348;2023-06-04T04:52:16;122.10;;;3.00;;
8411;SDS011;4243;49.296;11.348;2023-06-04T04:54:45;121.67;;;3.10;;
8411;SDS011;4243;49.296;11.348;2023-06-04T04:57:13;121.07;;;3.10;;
8411;SDS011;4243;49.296;11.348;2023-06-04T04:59:45;121.40;;;3.07;;
8411;SDS011;4243;49.296;11.348;2023-06-04T05:02:12;121.80;;;3.10;;
8411;SDS011;4243;49.296;11.348;2023-06-04T05:04:41;121.33;;;3.00;;
8411;SDS011;4243;49.296;11.348;2023-06-04T05:07:09;121.43;;;2.87;;
8411;SDS011;4243;49.296;11.348;2023-06-04T05:09:36;121.70;;;2.93;;
8411;SDS011;4243;49.296;11.348;2023-06-04T05:12:04;121.27;;;2.93;;
8411;SDS011;4243;49.296;11.348;2023-06-04T05:14:32;121.70;;;3.00;;
8411;SDS011;4243;49.296;11.348;2023-06-04T05:17:02;120.80;;;2.90;;
8411;SDS011;4243;49.296;11.348;2023-06-04T05:19:30;121.43;;;2.80;;
8411;SDS011;4243;49.296;11.348;2023-06-04T05:22:00;120.87;;;2.97;;
8411;SDS011;4243;49.296;11.348;2023-06-04T05:24:28;121.07;;;2.90;;
8411;SDS011;4243;49.296;11.348;2023-06-04T05:27:00;120.70;;;2.97;;
8411;SDS011;4243;49.296;11.348;2023-06-04T05:29:30;120.97;;;2.83;;
8411;SDS011;4243;49.296;11.348;2023-06-04T05:31:57;120.30;;;2.70;;
8411;SDS011;4243;49.296;11.348;2023-06-04T05:34:25;120.77;;;2.90;;
8411;SDS011;4243;49.296;11.348;2023-06-04T05:36:54;120.20;;;3.00;;
8411;SDS011;4243;49.296;11.348;2023-06-04T05:39:23;120.20;;;2.93;;
8411;SDS011;4243;49.296;11.348;2023-06-04T05:41:57;120.03;;;3.00;;
8411;SDS011;4243;49.296;11.348;2023-06-04T05:44:24;119.47;;;3.13;;
8411;SDS011;4243;49.296;11.348;2023-06-04T05:46:52;120.40;;;3.90;;
8411;SDS011;4243;49.296;11.348;2023-06-04T05:49:20;120.50;;;4.40;;
8411;SDS011;4243;49.296;11.348;2023-06-04T05:51:51;121.20;;;6.33;;
8411;SDS011;4243;49.296;11.348;2023-06-04T05:54:19;122.07;;;8.20;;
8411;SDS011;4243;49.296;11.348;2023-06-04T05:56:48;121.77;;;7.87;;
8411;SDS011;4243;49.296;11.348;2023-06-04T05:59:16;122.40;;;8.87;;
8411;SDS011;4243;49.296;11.348;2023-06-04T06:01:43;122.53;;;8.77;;
8411;SDS011;4243;49.296;11.348;2023-06-04T06:04:11;123.53;;;11.30;;
8411;SDS011;4243;49.296;11.348;2023-06-04T06:06:41;122.67;;;9.63;;
8411;SDS011;4243;49.296;11.348;2023-06-04T06:09:10;121.57;;;7.57;;
8411;SDS011;4243;49.296;11.348;2023-06-04T06:11:37;121.83;;;7.90;;
8411;SDS011;4243;49.296;11.348;2023-06-04T06:14:05;122.10;;;7.53;;
8411;SDS011;4243;49.296;11.348;2023-06-04T06:16:33;122.37;;;8.07;;
8411;SDS011;4243;49.296;11.348;2023-06-04T06:19:02;122.17;;;8.00;;
8411;SDS011;4243;49.296;11.348;2023-06-04T06:21:30;121.90;;;8.10;;
8411;SDS011;4243;49.296;11.348;2023-06-04T06:23:58;121.73;;;7.10;;
8411;SDS011;4243;49.296;11.348;2023-06-04T06:26:26;121.70;;;7.40;;
8411;SDS011;4243;49.296;11.348;2023-06-04T06:28:56;121.47;;;7.00;;
8411;SDS011;4243;49.296;11.348;2023-06-04T06:31:28;120.60;;;6.50;;
8411;SDS011;4243;49.296;11.348;2023-06-04T06:33:56;121.00;;;6.60;;
8411;SDS011;4243;49.296;11.348;2023-06-04T06:36:23;120.87;;;6.30;;
8411;SDS011;4243;49.296;11.348;2023-06-04T06:38:51;120.97;;;6.10;;
8411;SDS011;4243;49.296;11.348;2023-06-04T06:41:18;121.10;;;6.30;;
8411;SDS011;4243;49.296;11.348;2023-06-04T06:43:47;120.40;;;5.77;;
8411;SDS011;4243;49.296;11.348;2023-06-04T06:46:15;120.00;;;5.40;;
8411;SDS011;4243;49.296;11.348;2023-06-04T06:48:42;119.47;;;4.60;;
8411;SDS011;4243;49.296;11.348;2023-06-04T06:51:11;118.93;;;3.90;;
8411;SDS011;4243;49.296;11.348;2023-06-04T06:53:39;118.60;;;3.53;;
8411;SDS011;4243;49.296;11.348;2023-06-04T06:56:06;118.97;;;3.13;;
8411;SDS011;4243;49.296;11.348;2023-06-04T06:58:34;118.87;;;2.60;;
8411;SDS011;4243;49.296;11.348;2023-06-04T07:01:02;117.77;;;2.53;;
8411;SDS011;4243;49.296;11.348;2023-06-04T07:03:29;117.90;;;2.60;;
8411;SDS011;4243;49.296;11.348;2023-06-04T07:05:57;118.00;;;2.60;;
8411;SDS011;4243;49.296;11.348;2023-06-04T07:08:25;118.03;;;2.60;;
8411;SDS011;4243;49.296;11.348;2023-06-04T07:10:52;118.33;;;2.53;;
8411;SDS011;4243;49.296;11.348;2023-06-04T07:13:20;118.10;;;2.53;;
8411;SDS011;4243;49.296;11.348;2023-06-04T07:15:47;117.70;;;2.50;;
8411;SDS011;4243;49.296;11.348;2023-06-04T07:18:15;117.90;;;2.60;;
8411;SDS011;4243;49.296;11.348;2023-06-04T07:20:42;117.73;;;2.53;;
8411;SDS011;4243;49.296;11.348;2023-06-04T07:23:10;117.87;;;2.80;;
8411;SDS011;4243;49.296;11.348;2023-06-04T07:25:38;117.60;;;2.43;;
8411;SDS011;4243;49.296;11.348;2023-06-04T07:28:05;117.40;;;2.43;;
8411;SDS011;4243;49.296;11.348;2023-06-04T07:30:33;117.37;;;2.50;;
8411;SDS011;4243;49.296;11.348;2023-06-04T07:33:02;116.80;;;2.53;;
8411;SDS011;4243;49.296;11.348;2023-06-04T07:35:29;117.17;;;2.40;;
8411;SDS011;4243;49.296;11.348;2023-06-04T07:37:57;117.50;;;2.50;;
8411;SDS011;4243;49.296;11.348;2023-06-04T07:40:25;116.50;;;2.30;;
8411;SDS011;4243;49.296;11.348;2023-06-04T07:42:52;115.57;;;2.73;;
8411;SDS011;4243;49.296;11.348;2023-06-04T07:45:20;115.60;;;3.20;;
8411;SDS011;4243;49.296;11.348;2023-06-04T07:47:47;115.73;;;2.83;;
8411;SDS011;4243;49.296;11.348;2023-06-04T07:50:15;115.70;;;2.60;;
8411;SDS011;4243;49.296;11.348;2023-06-04T07:52:42;114.87;;;2.70;;
8411;SDS011;4243;49.296;11.348;2023-06-04T07:55:10;115.37;;;2.90;;
8411;SDS011;4243;49.296;11.348;2023-06-04T07:57:37;114.30;;;2.20;;
8411;SDS011;4243;49.296;11.348;2023-06-04T08:00:05;113.90;;;1.90;;
8411;SDS011;4243;49.296;11.348;2023-06-04T08:03:36;114.67;;;1.80;;
8411;SDS011;4243;49.296;11.348;2023-06-04T08:06:04;113.50;;;1.70;;
8411;SDS011;4243;49.296;11.348;2023-06-04T08:08:32;113.57;;;2.27;;
8411;SDS011;4243;49.296;11.348;2023-06-04T08:11:00;113.80;;;3.50;;
8411;SDS011;4243;49.296;11.348;2023-06-04T08:13:27;113.77;;;4.90;;
8411;SDS011;4243;49.296;11.348;2023-06-04T08:15:55;113.37;;;4.07;;
8411;SDS011;4243;49.296;11.348;2023-06-04T08:18:22;112.53;;;3.60;;
8411;SDS011;4243;49.296;11.348;2023-06-04T08:20:49;111.73;;;2.73;;
8411;SDS011;4243;49.296;11.348;2023-06-04T08:23:17;110.80;;;2.20;;
8411;SDS011;4243;49.296;11.348;2023-06-04T08:25:45;111.07;;;2.43;;
8411;SDS011;4243;49.296;11.348;2023-06-04T08:28:15;111.10;;;4.10;;
8411;SDS011;4243;49.296;11.348;2023-06-04T08:30:44;110.70;;;4.20;;
8411;SDS011;4243;49.296;11.348;2023-06-04T08:33:12;109.37;;;2.90;;
8411;SDS011;4243;49.296;11.348;2023-06-04T08:35:39;110.47;;;3.50;;
8411;SDS011;4243;49.296;11.348;2023-06-04T08:38:06;109.77;;;3.60;;
8411;SDS011;4243;49.296;11.348;2023-06-04T08:40:34;109.57;;;3.50;;
8411;SDS011;4243;49.296;11.348;2023-06-04T08:43:01;108.57;;;3.10;;
8411;SDS011;4243;49.296;11.348;2023-06-04T08:45:32;108.80;;;3.67;;
8411;SDS011;4243;49.296;11.348;2023-06-04T08:48:05;109.27;;;4.90;;
8411;SDS011;4243;49.296;11.348;2023-06-04T08:50:39;108.57;;;4.83;;
8411;SDS011;4243;49.296;11.348;2023-06-04T08:53:15;107.00;;;2.50;;
8411;SDS011;4243;49.296;11.348;2023-06-04T08:55:42;106.83;;;1.80;;
8411;SDS011;4243;49.296;11.348;2023-06-04T08:58:11;106.67;;;2.00;;
8411;SDS011;4243;49.296;11.348;2023-06-04T09:00:42;106.67;;;3.57;;
8411;SDS011;4243;49.296;11.348;2023-06-04T09:03:10;107.20;;;5.53;;
8411;SDS011;4243;49.296;11.348;2023-06-04T09:05:41;109.20;;;9.47;;
8411;SDS011;4243;49.296;11.348;2023-06-04T09:08:14;110.03;;;11.63;;
8411;SDS011;4243;49.296;11.348;2023-06-04T09:10:45;107.47;;;8.20;;
8411;SDS011;4243;49.296;11.348;2023-06-04T09:13:18;106.97;;;6.13;;
8411;SDS011;4243;49.296;11.348;2023-06-04T09:15:58;106.80;;;6.50;;
8411;SDS011;4243;49.296;11.348;2023-06-04T09:18:30;107.00;;;7.97;;
8411;SDS011;4243;49.296;11.348;2023-06-04T09:21:05;106.80;;;5.90;;
8411;SDS011;4243;49.296;11.348;2023-06-04T09:23:36;106.00;;;4.40;;
8411;SDS011;4243;49.296;11.348;2023-06-04T09:26:11;105.43;;;3.23;;
8411;SDS011;4243;49.296;11.348;2023-06-04T09:28:40;106.20;;;3.73;;
8411;SDS011;4243;49.296;11.348;2023-06-04T09:31:13;105.37;;;2.70;;
8411;SDS011;4243;49.296;11.348;2023-06-04T09:33:45;105.57;;;2.40;;
8411;SDS011;4243;49.296;11.348;2023-06-04T09:36:16;104.33;;;1.97;;
8411;SDS011;4243;49.296;11.348;2023-06-04T09:38:45;104.57;;;1.97;;
8411;SDS011;4243;49.296;11.348;2023-06-04T09:41:16;104.67;;;2.60;;
8411;SDS011;4243;49.296;11.348;2023-06-04T09:43:58;105.27;;;4.30;;
8411;SDS011;4243;49.296;11.348;2023-06-04T09:46:29;104.70;;;2.43;;
8411;SDS011;4243;49.296;11.348;2023-06-04T09:49:01;105.67;;;3.20;;
8411;SDS011;4243;49.296;11.348;2023-06-04T09:51:34;104.20;;;1.80;;
8411;SDS011;4243;49.296;11.348;2023-06-04T09:54:13;106.27;;;4.30;;
8411;SDS011;4243;49.296;11.348;2023-06-04T09:56:41;107.27;;;6.37;;
8411;SDS011;4243;49.296;11.348;2023-06-04T09:59:09;105.37;;;3.17;;
8411;SDS011;4243;49.296;11.348;2023-06-04T10:01:40;105.47;;;2.30;;
8411;SDS011;4243;49.296;11.348;2023-06-04T10:04:08;106.30;;;2.40;;
8411;SDS011;4243;49.296;11.348;2023-06-04T10:06:38;106.63;;;2.27;;
8411;SDS011;4243;49.296;11.348;2023-06-04T10:09:08;106.60;;;1.60;;
8411;SDS011;4243;49.296;11.348;2023-06-04T10:11:44;106.40;;;1.83;;
8411;SDS011;4243;49.296;11.348;2023-06-04T10:14:25;105.57;;;1.40;;
8411;SDS011;4243;49.296;11.348;2023-06-04T10:17:07;106.30;;;2.30;;
8411;SDS011;4243;49.296;11.348;2023-06-04T10:19:38;105.97;;;3.13;;
8411;SDS011;4243;49.296;11.348;2023-06-04T10:22:11;107.43;;;4.57;;
8411;SDS011;4243;49.296;11.348;2023-06-04T10:24:38;107.10;;;4.67;;
8411;SDS011;4243;49.296;11.348;2023-06-04T10:27:06;108.20;;;6.80;;
8411;SDS011;4243;49.296;11.348;2023-06-04T10:29:39;107.93;;;7.73;;
8411;SDS011;4243;49.296;11.348;2023-06-04T10:32:06;106.47;;;6.10;;
8411;SDS011;4243;49.296;11.348;2023-06-04T10:34:34;107.47;;;8.53;;
8411;SDS011;4243;49.296;11.348;2023-06-04T10:37:02;110.07;;;11.87;;
8411;SDS011;4243;49.296;11.348;2023-06-04T10:39:31;107.97;;;10.80;;
8411;SDS011;4243;49.296;11.348;2023-06-04T10:44:30;108.17;;;9.93;;
8411;SDS011;4243;49.296;11.348;2023-06-04T10:46:58;109.90;;;11.17;;
8411;SDS011;4243;49.296;11.348;2023-06-04T10:49:26;109.30;;;11.47;;
8411;SDS011;4243;49.296;11.348;2023-06-04T10:52:09;109.57;;;11.20;;
8411;SDS011;4243;49.296;11.348;2023-06-04T10:54:37;109.37;;;11.50;;
8411;SDS011;4243;49.296;11.348;2023-06-04T10:57:14;107.30;;;8.23;;
8411;SDS011;4243;49.296;11.348;2023-06-04T10:59:53;105.63;;;5.77;;
8411;SDS011;4243;49.296;11.348;2023-06-04T11:02:25;103.30;;;3.20;;
8411;SDS011;4243;49.296;11.348;2023-06-04T11:05:00;102.97;;;2.83;;
8411;SDS011;4243;49.296;11.348;2023-06-04T11:07:41;103.07;;;4.40;;
8411;SDS011;4243;49.296;11.348;2023-06-04T11:10:14;102.20;;;3.20;;
8411;SDS011;4243;49.296;11.348;2023-06-04T11:12:48;102.40;;;3.00;;
8411;SDS011;4243;49.296;11.348;2023-06-04T11:15:19;103.07;;;2.30;;
8411;SDS011;4243;49.296;11.348;2023-06-04T11:17:53;103.50;;;3.20;;
8411;SDS011;4243;49.296;11.348;2023-06-04T11:20:25;102.60;;;2.20;;
8411;SDS011;4243;49.296;11.348;2023-06-04T11:22:56;102.80;;;2.20;;
8411;SDS011;4243;49.296;11.348;2023-06-04T11:25:30;102.13;;;2.10;;
8411;SDS011;4243;49.296;11.348;2023-06-04T11:27:59;100.97;;;2.30;;
8411;SDS011;4243;49.296;11.348;2023-06-04T11:30:30;103.60;;;3.73;;
8411;SDS011;4243;49.296;11.348;2023-06-04T11:33:04;103.07;;;2.90;;
8411;SDS011;4243;49.296;11.348;2023-06-04T11:35:40;103.40;;;3.20;;
8411;SDS011;4243;49.296;11.348;2023-06-04T11:38:09;102.87;;;2.53;;
8411;SDS011;4243;49.296;11.348;2023-06-04T11:40:36;103.60;;;2.50;;
8411;SDS011;4243;49.296;11.348;2023-06-04T11:43:04;102.60;;;2.47;;
8411;SDS011;4243;49.296;11.348;2023-06-04T11:45:32;103.67;;;2.77;;
8411;SDS011;4243;49.296;11.348;2023-06-04T11:47:59;103.30;;;2.33;;
8411;SDS011;4243;49.296;11.348;2023-06-04T11:50:28;103.37;;;2.57;;
8411;SDS011;4243;49.296;11.348;2023-06-04T11:52:55;103.90;;;2.53;;
8411;SDS011;4243;49.296;11.348;2023-06-04T11:55:23;102.77;;;2.30;;
8411;SDS011;4243;49.296;11.348;2023-06-04T11:57:51;103.30;;;2.27;;
8411;SDS011;4243;49.296;11.348;2023-06-04T12:00:19;103.67;;;2.30;;
8411;SDS011;4243;49.296;11.348;2023-06-04T12:02:54;102.17;;;1.93;;
8411;SDS011;4243;49.296;11.348;2023-06-04T12:05:23;102.53;;;1.70;;
8411;SDS011;4243;49.296;11.348;2023-06-04T12:08:08;101.07;;;1.40;;
8411;SDS011;4243;49.296;11.348;2023-06-04T12:10:37;101.27;;;1.60;;
8411;SDS011;4243;49.296;11.348;2023-06-04T12:13:07;102.50;;;1.97;;
8411;SDS011;4243;49.296;11.348;2023-06-04T12:15:36;103.53;;;2.40;;
8411;SDS011;4243;49.296;11.348;2023-06-04T12:18:03;104.27;;;2.60;;
8411;SDS011;4243;49.296;11.348;2023-06-04T12:20:32;104.80;;;3.03;;
8411;SDS011;4243;49.296;11.348;2023-06-04T12:23:06;104.77;;;2.83;;
8411;SDS011;4243;49.296;11.348;2023-06-04T12:25:34;104.37;;;2.70;;
8411;SDS011;4243;49.296;11.348;2023-06-04T12:28:04;104.20;;;2.67;;
8411;SDS011;4243;49.296;11.348;2023-06-04T12:30:35;104.90;;;2.63;;
8411;SDS011;4243;49.296;11.348;2023-06-04T12:33:07;104.00;;;2.50;;
8411;SDS011;4243;49.296;11.348;2023-06-04T12:35:36;104.37;;;2.57;;
8411;SDS011;4243;49.296;11.348;2023-06-04T12:38:03;104.07;;;2.47;;
8411;SDS011;4243;49.296;11.348;2023-06-04T12:40:31;104.67;;;2.90;;
8411;SDS011;4243;49.296;11.348;2023-06-04T12:42:59;105.03;;;3.30;;
8411;SDS011;4243;49.296;11.348;2023-06-04T12:45:26;105.30;;;3.23;;
8411;SDS011;4243;49.296;11.348;2023-06-04T12:47:54;105.70;;;3.27;;
8411;SDS011;4243;49.296;11.348;2023-06-04T12:50:21;105.60;;;3.20;;
8411;SDS011;4243;49.296;11.348;2023-06-04T12:52:49;105.97;;;3.27;;
8411;SDS011;4243;49.296;11.348;2023-06-04T12:55:16;106.87;;;4.20;;
8411;SDS011;4243;49.296;11.348;2023-06-04T12:57:44;107.90;;;5.23;;
8411;SDS011;4243;49.296;11.348;2023-06-04T13:00:12;108.07;;;5.40;;
8411;SDS011;4243;49.296;11.348;2023-06-04T13:02:42;109.17;;;5.43;;
8411;SDS011;4243;49.296;11.348;2023-06-04T13:05:10;108.53;;;4.10;;
8411;SDS011;4243;49.296;11.348;2023-06-04T13:07:38;109.20;;;5.40;;
8411;SDS011;4243;49.296;11.348;2023-06-04T13:10:05;109.47;;;5.97;;
8411;SDS011;4243;49.296;11.348;2023-06-04T13:12:33;109.23;;;5.70;;
8411;SDS011;4243;49.296;11.348;2023-06-04T13:15:01;110.30;;;6.57;;
8411;SDS011;4243;49.296;11.348;2023-06-04T13:17:29;111.20;;;7.17;;
8411;SDS011;4243;49.296;11.348;2023-06-04T13:19:56;110.17;;;6.57;;
8411;SDS011;4243;49.296;11.348;2023-06-04T13:22:24;110.47;;;6.80;;
8411;SDS011;4243;49.296;11.348;2023-06-04T13:24:51;109.37;;;6.50;;
8411;SDS011;4243;49.296;11.348;2023-06-04T13:27:19;109.50;;;6.33;;
8411;SDS011;4243;49.296;11.348;2023-06-04T13:29:46;109.17;;;5.90;;
8411;SDS011;4243;49.296;11.348;2023-06-04T13:32:14;109.07;;;5.87;;
8411;SDS011;4243;49.296;11.348;2023-06-04T13:34:41;109.50;;;7.00;;
8411;SDS011;4243;49.296;11.348;2023-06-04T13:37:09;109.03;;;5.77;;
8411;SDS011;4243;49.296;11.348;2023-06-04T13:39:37;108.90;;;5.33;;
8411;SDS011;4243;49.296;11.348;2023-06-04T13:42:05;108.87;;;4.30;;
8411;SDS011;4243;49.296;11.348;2023-06-04T13:44:33;109.73;;;5.50;;
8411;SDS011;4243;49.296;11.348;2023-06-04T13:47:01;110.87;;;6.47;;
8411;SDS011;4243;49.296;11.348;2023-06-04T13:49:33;111.30;;;7.37;;
8411;SDS011;4243;49.296;11.348;2023-06-04T13:52:01;112.67;;;8.50;;
8411;SDS011;4243;49.296;11.348;2023-06-04T13:54:28;111.57;;;6.60;;
8411;SDS011;4243;49.296;11.348;2023-06-04T13:56:56;111.97;;;7.47;;
8411;SDS011;4243;49.296;11.348;2023-06-04T13:59:23;112.80;;;7.90;;
8411;SDS011;4243;49.296;11.348;2023-06-04T14:01:51;113.10;;;8.40;;
8411;SDS011;4243;49.296;11.348;2023-06-04T14:04:18;112.90;;;8.17;;
8411;SDS011;4243;49.296;11.348;2023-06-04T14:06:46;112.07;;;7.53;;
8411;SDS011;4243;49.296;11.348;2023-06-04T14:09:14;112.30;;;7.70;;
8411;SDS011;4243;49.296;11.348;2023-06-04T14:11:42;111.47;;;6.47;;
8411;SDS011;4243;49.296;11.348;2023-06-04T14:14:12;111.60;;;5.77;;
8411;SDS011;4243;49.296;11.348;2023-06-04T14:16:39;111.17;;;6.10;;
8411;SDS011;4243;49.296;11.348;2023-06-04T14:19:07;110.67;;;5.27;;
8411;SDS011;4243;49.296;11.348;2023-06-04T14:21:34;110.27;;;4.17;;
8411;SDS011;4243;49.296;11.348;2023-06-04T14:24:02;110.60;;;4.37;;
8411;SDS011;4243;49.296;11.348;2023-06-04T14:26:30;110.90;;;5.03;;
8411;SDS011;4243;49.296;11.348;2023-06-04T14:28:58;110.47;;;4.83;;
8411;SDS011;4243;49.296;11.348;2023-06-04T14:31:25;111.27;;;6.57;;
8411;SDS011;4243;49.296;11.348;2023-06-04T14:33:53;112.30;;;7.83;;
8411;SDS011;4243;49.296;11.348;2023-06-04T14:36:20;111.53;;;6.77;;
8411;SDS011;4243;49.296;11.348;2023-06-04T14:38:48;110.57;;;5.33;;
8411;SDS011;4243;49.296;11.348;2023-06-04T14:41:16;110.87;;;4.00;;
8411;SDS011;4243;49.296;11.348;2023-06-04T14:43:44;110.50;;;2.40;;
8411;SDS011;4243;49.296;11.348;2023-06-04T14:46:12;110.50;;;2.50;;
8411;SDS011;4243;49.296;11.348;2023-06-04T14:48:40;110.83;;;2.37;;
8411;SDS011;4243;49.296;11.348;2023-06-04T14:51:07;117.87;;;2.57;;